Fort Collins, CO

7:55 AM MDT on August 27, 2014 (GMT -0600)
Erie Municipal Airport | Change Station
CLOSE
Current Station
Airport
Location: Erie,
Elevation: 5128 ft
Nearby Weather Stations

Elev 5128 ft 40.01 °N, 105.05 °W | Updated 20 minutes ago

Mostly Cloudy
Mostly Cloudy
61 °F
Feels Like 61 °F
N
0
Wind Variable Wind from North

Today
High -- | Low -- °F
--% Chance of Precip.
Yesterday
High -- | Low -- °F
Precip. -- in
6:22 AM 7:40 PM
Waxing Crescent, 4% visible
Pressure 30.17 in
Visibility 10.0 miles
Clouds Mostly Cloudy 9000 ft
Mostly Cloudy 12000 ft
Dew Point 57 °F
Humidity 88%
Rainfall 0.00 in
Snow Depth Not available.
UV 0 out of 12
Pollen 7.90 out of 12
Ozone Good
PM2.5 Good
Flu Activity Not available.
METAR KEIK 271335Z AUTO 00000KT 10SM BKN090 BKN120 16/14 A3017 RMK AO2 T01600140

More Conditions Fewer Conditions

Pressure 30.17 in
Visibility 10.0 miles
Clouds Mostly Cloudy 9000 ft
Mostly Cloudy 12000 ft
Dew Point 57 °F
Humidity 88%
Rainfall 0.00 in
Snow Depth Not available.
UV 0 out of 12
Pollen 7.90 out of 12
Ozone Good
PM2.5 Good
Flu Activity Not available.
METAR KEIK 271335Z AUTO 00000KT 10SM BKN090 BKN120 16/14 A3017 RMK AO2 T01600140

More Conditions Fewer Conditions

10-Day Weather Forecast

Almanac

Astronomy

Aug. 27, 2014 Rise Set
Actual Time 6:22 AM MDT 7:40 PM MDT
Civil Twilight 5:54 AM MDT 8:08 PM MDT
Nautical Twilight 5:20 AM MDT 8:42 PM MDT
Astronomical Twilight 4:44 AM MDT 9:18 PM MDT
Moon 8:22 AM MDT 8:33 PM MDT
Length of Visible Light 14h 14m
Length of Day
13h 17m
Tomorrow will be 2m 32s shorter.
Waxing Crescent, 4% of the Moon is Illuminated
Today
Waxing Crescent
Sep 2
First Quarter
Sep 8
Full
Sep 15
Last Quarter
Sep 24
New

Today's Extremes

State Highs State Lows

Community

WunderPhotos

Upload Photos

1,747,684 photos uploaded!

Nearby

Air Quality

  Air Quality AQ Index Pollutant
Yesterday Good
OZONE
Yesterday Good
PM2.5
Current Good
PM2.5
Current Good
OZONE
Wednesday Good
PM2.5
Wednesday Good
OZONE

Snow Depth

Station Depth Elevation
Bear Lake 0 in 9500 ft
Willow Park 0 in 10700 ft
Copeland Lake 0 in 8600 ft
Wild Basin 1 in 9560 ft
Lake Irene 1 in 10700 ft

Earthquake Activity

City Distance Mag. Time & Date
No recent earthquake activity has been reported nearby.
Minimum magnitude displayed is 2.5.

Coastal Water Temperatures

Place Temperature
No Stations Reporting

Nearby Weather Stations